sensor_id;sensor_type;location;lat;lon;timestamp;P1;durP1;ratioP1;P2;durP2;ratioP2
20802;SDS011;10562;-33.856;151.182;2023-05-10T00:01:48;7.30;;;1.70;;
20802;SDS011;10562;-33.856;151.182;2023-05-10T00:04:21;5.20;;;1.70;;
20802;SDS011;10562;-33.856;151.182;2023-05-10T00:06:53;3.97;;;1.70;;
20802;SDS011;10562;-33.856;151.182;2023-05-10T00:09:24;3.63;;;1.70;;
20802;SDS011;10562;-33.856;151.182;2023-05-10T00:11:55;2.10;;;1.38;;
20802;SDS011;10562;-33.856;151.182;2023-05-10T02:44:42;2.97;;;1.08;;
20802;SDS011;10562;-33.856;151.182;2023-05-10T02:47:17;10.00;;;1.33;;
20802;SDS011;10562;-33.856;151.182;2023-05-10T02:49:48;10.52;;;2.60;;
20802;SDS011;10562;-33.856;151.182;2023-05-10T02:52:21;5.78;;;1.50;;
20802;SDS011;10562;-33.856;151.182;2023-05-10T02:54:55;6.55;;;2.92;;
20802;SDS011;10562;-33.856;151.182;2023-05-10T02:57:30;4.72;;;1.40;;
20802;SDS011;10562;-33.856;151.182;2023-05-10T03:00:05;5.80;;;1.45;;
20802;SDS011;10562;-33.856;151.182;2023-05-10T03:02:36;3.35;;;1.15;;
20802;SDS011;10562;-33.856;151.182;2023-05-10T03:05:07;5.50;;;2.22;;
20802;SDS011;10562;-33.856;151.182;2023-05-10T03:07:38;4.32;;;1.63;;
20802;SDS011;10562;-33.856;151.182;2023-05-10T03:10:09;5.65;;;1.52;;
20802;SDS011;10562;-33.856;151.182;2023-05-10T03:12:44;5.07;;;1.30;;
20802;SDS011;10562;-33.856;151.182;2023-05-10T03:15:34;3.70;;;1.60;;
20802;SDS011;10562;-33.856;151.182;2023-05-10T03:18:15;5.82;;;1.23;;
20802;SDS011;10562;-33.856;151.182;2023-05-10T03:20:48;3.65;;;1.17;;
20802;SDS011;10562;-33.856;151.182;2023-05-10T03:23:26;3.83;;;1.27;;
20802;SDS011;10562;-33.856;151.182;2023-05-10T03:26:01;7.90;;;3.00;;
20802;SDS011;10562;-33.856;151.182;2023-05-10T03:28:33;6.43;;;2.28;;
20802;SDS011;10562;-33.856;151.182;2023-05-10T03:31:07;3.72;;;1.23;;
20802;SDS011;10562;-33.856;151.182;2023-05-10T03:33:45;4.53;;;1.30;;
20802;SDS011;10562;-33.856;151.182;2023-05-10T03:36:17;19.50;;;9.05;;
20802;SDS011;10562;-33.856;151.182;2023-05-10T03:38:48;9.73;;;3.30;;
20802;SDS011;10562;-33.856;151.182;2023-05-10T03:41:19;5.13;;;1.40;;
20802;SDS011;10562;-33.856;151.182;2023-05-10T03:43:49;5.43;;;1.40;;
20802;SDS011;10562;-33.856;151.182;2023-05-10T03:46:22;5.63;;;1.83;;
20802;SDS011;10562;-33.856;151.182;2023-05-10T03:48:53;4.30;;;1.33;;
20802;SDS011;10562;-33.856;151.182;2023-05-10T03:51:24;5.53;;;1.70;;
20802;SDS011;10562;-33.856;151.182;2023-05-10T03:53:55;4.85;;;1.55;;
20802;SDS011;10562;-33.856;151.182;2023-05-10T03:56:25;4.30;;;1.52;;
20802;SDS011;10562;-33.856;151.182;2023-05-10T03:58:56;6.22;;;1.48;;
20802;SDS011;10562;-33.856;151.182;2023-05-10T04:01:29;6.18;;;1.80;;
20802;SDS011;10562;-33.856;151.182;2023-05-10T04:04:00;8.30;;;2.30;;
20802;SDS011;10562;-33.856;151.182;2023-05-10T04:06:30;7.20;;;2.38;;
20802;SDS011;10562;-33.856;151.182;2023-05-10T04:09:01;5.97;;;1.63;;
20802;SDS011;10562;-33.856;151.182;2023-05-10T04:11:32;6.30;;;1.60;;
20802;SDS011;10562;-33.856;151.182;2023-05-10T04:14:03;5.05;;;1.55;;
20802;SDS011;10562;-33.856;151.182;2023-05-10T04:16:36;9.60;;;2.33;;
20802;SDS011;10562;-33.856;151.182;2023-05-10T04:19:06;5.55;;;2.08;;
20802;SDS011;10562;-33.856;151.182;2023-05-10T04:21:37;8.13;;;1.65;;
20802;SDS011;10562;-33.856;151.182;2023-05-10T04:24:08;6.22;;;2.60;;
20802;SDS011;10562;-33.856;151.182;2023-05-10T04:26:39;7.10;;;2.30;;
20802;SDS011;10562;-33.856;151.182;2023-05-10T04:29:09;8.90;;;3.47;;
20802;SDS011;10562;-33.856;151.182;2023-05-10T04:31:42;5.03;;;2.33;;
20802;SDS011;10562;-33.856;151.182;2023-05-10T04:34:13;6.40;;;2.00;;
20802;SDS011;10562;-33.856;151.182;2023-05-10T04:36:44;6.18;;;1.80;;
20802;SDS011;10562;-33.856;151.182;2023-05-10T04:39:14;4.63;;;1.98;;
20802;SDS011;10562;-33.856;151.182;2023-05-10T04:41:45;3.50;;;1.75;;
20802;SDS011;10562;-33.856;151.182;2023-05-10T04:44:16;4.43;;;1.60;;
20802;SDS011;10562;-33.856;151.182;2023-05-10T04:46:49;4.00;;;1.40;;
20802;SDS011;10562;-33.856;151.182;2023-05-10T04:49:20;4.97;;;1.48;;
20802;SDS011;10562;-33.856;151.182;2023-05-10T04:51:50;4.10;;;1.30;;
20802;SDS011;10562;-33.856;151.182;2023-05-10T04:54:21;4.60;;;1.50;;
20802;SDS011;10562;-33.856;151.182;2023-05-10T04:56:52;5.38;;;1.92;;
20802;SDS011;10562;-33.856;151.182;2023-05-10T04:59:23;8.10;;;2.78;;
20802;SDS011;10562;-33.856;151.182;2023-05-10T05:01:56;6.38;;;1.80;;
20802;SDS011;10562;-33.856;151.182;2023-05-10T05:04:28;7.85;;;1.92;;
20802;SDS011;10562;-33.856;151.182;2023-05-10T05:07:00;6.75;;;1.55;;
20802;SDS011;10562;-33.856;151.182;2023-05-10T05:09:30;2.60;;;1.10;;
20802;SDS011;10562;-33.856;151.182;2023-05-10T05:12:01;5.63;;;1.75;;
20802;SDS011;10562;-33.856;151.182;2023-05-10T05:14:32;2.92;;;1.15;;
20802;SDS011;10562;-33.856;151.182;2023-05-10T05:17:05;3.83;;;1.40;;
20802;SDS011;10562;-33.856;151.182;2023-05-10T05:19:36;4.88;;;1.40;;
20802;SDS011;10562;-33.856;151.182;2023-05-10T05:22:06;3.15;;;1.35;;
20802;SDS011;10562;-33.856;151.182;2023-05-10T05:24:37;3.97;;;1.17;;
20802;SDS011;10562;-33.856;151.182;2023-05-10T05:27:08;5.72;;;1.38;;
20802;SDS011;10562;-33.856;151.182;2023-05-10T05:29:39;3.08;;;1.08;;
20802;SDS011;10562;-33.856;151.182;2023-05-10T05:32:11;4.30;;;1.20;;
20802;SDS011;10562;-33.856;151.182;2023-05-10T05:34:44;2.70;;;1.20;;
20802;SDS011;10562;-33.856;151.182;2023-05-10T05:37:15;3.17;;;1.10;;
20802;SDS011;10562;-33.856;151.182;2023-05-10T05:39:47;2.80;;;1.08;;
20802;SDS011;10562;-33.856;151.182;2023-05-10T05:42:17;3.72;;;1.38;;
20802;SDS011;10562;-33.856;151.182;2023-05-10T05:44:48;4.22;;;1.40;;
20802;SDS011;10562;-33.856;151.182;2023-05-10T05:47:21;4.30;;;1.38;;
20802;SDS011;10562;-33.856;151.182;2023-05-10T05:49:53;2.83;;;1.10;;
20802;SDS011;10562;-33.856;151.182;2023-05-10T05:52:24;5.15;;;1.33;;
20802;SDS011;10562;-33.856;151.182;2023-05-10T05:54:55;8.30;;;1.50;;
20802;SDS011;10562;-33.856;151.182;2023-05-10T05:57:25;6.00;;;1.23;;
20802;SDS011;10562;-33.856;151.182;2023-05-10T05:59:56;5.55;;;0.98;;
20802;SDS011;10562;-33.856;151.182;2023-05-10T06:02:29;4.68;;;1.20;;
20802;SDS011;10562;-33.856;151.182;2023-05-10T06:05:00;5.10;;;1.10;;
20802;SDS011;10562;-33.856;151.182;2023-05-10T06:07:30;4.25;;;1.30;;
20802;SDS011;10562;-33.856;151.182;2023-05-10T06:10:01;4.32;;;1.27;;
20802;SDS011;10562;-33.856;151.182;2023-05-10T06:12:32;4.20;;;1.45;;
20802;SDS011;10562;-33.856;151.182;2023-05-10T06:15:03;5.53;;;1.50;;
20802;SDS011;10562;-33.856;151.182;2023-05-10T06:17:36;6.78;;;1.70;;
20802;SDS011;10562;-33.856;151.182;2023-05-10T06:20:07;7.47;;;1.38;;
20802;SDS011;10562;-33.856;151.182;2023-05-10T06:22:39;3.70;;;1.30;;
20802;SDS011;10562;-33.856;151.182;2023-05-10T06:25:10;3.80;;;1.42;;
20802;SDS011;10562;-33.856;151.182;2023-05-10T06:27:40;2.95;;;1.10;;
20802;SDS011;10562;-33.856;151.182;2023-05-10T06:30:11;4.43;;;1.10;;
20802;SDS011;10562;-33.856;151.182;2023-05-10T06:32:44;4.43;;;1.13;;
20802;SDS011;10562;-33.856;151.182;2023-05-10T06:35:15;4.75;;;1.10;;
20802;SDS011;10562;-33.856;151.182;2023-05-10T06:37:47;7.22;;;1.42;;
20802;SDS011;10562;-33.856;151.182;2023-05-10T06:40:17;24.27;;;1.35;;
20802;SDS011;10562;-33.856;151.182;2023-05-10T06:42:49;6.45;;;1.30;;
20802;SDS011;10562;-33.856;151.182;2023-05-10T06:45:20;6.25;;;1.30;;
20802;SDS011;10562;-33.856;151.182;2023-05-10T06:47:53;3.67;;;1.20;;
20802;SDS011;10562;-33.856;151.182;2023-05-10T06:50:23;4.45;;;1.40;;
20802;SDS011;10562;-33.856;151.182;2023-05-10T06:52:55;5.55;;;1.20;;
20802;SDS011;10562;-33.856;151.182;2023-05-10T06:55:26;2.85;;;1.00;;
20802;SDS011;10562;-33.856;151.182;2023-05-10T06:57:57;3.80;;;1.20;;
20802;SDS011;10562;-33.856;151.182;2023-05-10T07:00:28;2.38;;;1.00;;
20802;SDS011;10562;-33.856;151.182;2023-05-10T07:03:00;4.38;;;1.40;;
20802;SDS011;10562;-33.856;151.182;2023-05-10T07:05:31;4.97;;;1.20;;
20802;SDS011;10562;-33.856;151.182;2023-05-10T07:08:02;7.55;;;1.40;;
20802;SDS011;10562;-33.856;151.182;2023-05-10T07:10:33;5.82;;;1.52;;
20802;SDS011;10562;-33.856;151.182;2023-05-10T07:13:04;6.78;;;1.48;;
20802;SDS011;10562;-33.856;151.182;2023-05-10T07:15:35;6.20;;;1.60;;
20802;SDS011;10562;-33.856;151.182;2023-05-10T07:18:08;9.63;;;1.90;;
20802;SDS011;10562;-33.856;151.182;2023-05-10T07:20:39;4.93;;;1.52;;
20802;SDS011;10562;-33.856;151.182;2023-05-10T07:23:10;7.18;;;1.63;;
20802;SDS011;10562;-33.856;151.182;2023-05-10T07:25:40;8.57;;;1.73;;
20802;SDS011;10562;-33.856;151.182;2023-05-10T07:28:13;4.80;;;1.70;;
20802;SDS011;10562;-33.856;151.182;2023-05-10T07:30:44;6.82;;;1.83;;
20802;SDS011;10562;-33.856;151.182;2023-05-10T07:33:17;3.88;;;1.35;;
20802;SDS011;10562;-33.856;151.182;2023-05-10T07:35:48;7.70;;;2.30;;
20802;SDS011;10562;-33.856;151.182;2023-05-10T07:38:19;5.95;;;1.83;;
20802;SDS011;10562;-33.856;151.182;2023-05-10T07:40:50;5.82;;;1.90;;
20802;SDS011;10562;-33.856;151.182;2023-05-10T07:43:20;6.85;;;1.98;;
20802;SDS011;10562;-33.856;151.182;2023-05-10T07:45:51;5.60;;;1.70;;
20802;SDS011;10562;-33.856;151.182;2023-05-10T07:48:25;4.55;;;1.98;;
20802;SDS011;10562;-33.856;151.182;2023-05-10T07:50:56;8.93;;;1.88;;
20802;SDS011;10562;-33.856;151.182;2023-05-10T07:53:27;10.65;;;2.20;;
20802;SDS011;10562;-33.856;151.182;2023-05-10T07:55:58;6.00;;;1.85;;
20802;SDS011;10562;-33.856;151.182;2023-05-10T07:58:48;7.30;;;2.10;;
20802;SDS011;10562;-33.856;151.182;2023-05-10T08:01:19;6.38;;;1.88;;
20802;SDS011;10562;-33.856;151.182;2023-05-10T08:03:51;4.85;;;1.80;;
20802;SDS011;10562;-33.856;151.182;2023-05-10T08:06:22;6.35;;;1.92;;
20802;SDS011;10562;-33.856;151.182;2023-05-10T08:08:55;5.55;;;1.92;;
20802;SDS011;10562;-33.856;151.182;2023-05-10T08:11:26;7.72;;;2.00;;
20802;SDS011;10562;-33.856;151.182;2023-05-10T08:13:57;6.35;;;1.92;;
20802;SDS011;10562;-33.856;151.182;2023-05-10T08:16:28;9.70;;;1.98;;
20802;SDS011;10562;-33.856;151.182;2023-05-10T08:19:02;7.82;;;2.05;;
20802;SDS011;10562;-33.856;151.182;2023-05-10T08:21:33;10.25;;;2.13;;
20802;SDS011;10562;-33.856;151.182;2023-05-10T08:24:04;5.13;;;1.95;;
20802;SDS011;10562;-33.856;151.182;2023-05-10T08:26:35;12.43;;;2.30;;
20802;SDS011;10562;-33.856;151.182;2023-05-10T08:29:06;9.20;;;2.22;;
20802;SDS011;10562;-33.856;151.182;2023-05-10T08:31:37;5.85;;;2.03;;
20802;SDS011;10562;-33.856;151.182;2023-05-10T08:34:09;7.60;;;2.20;;
20802;SDS011;10562;-33.856;151.182;2023-05-10T08:36:40;5.65;;;2.00;;
20802;SDS011;10562;-33.856;151.182;2023-05-10T08:39:11;9.82;;;2.53;;
20802;SDS011;10562;-33.856;151.182;2023-05-10T08:41:42;8.73;;;2.15;;
20802;SDS011;10562;-33.856;151.182;2023-05-10T08:44:15;9.13;;;2.20;;
20802;SDS011;10562;-33.856;151.182;2023-05-10T08:46:46;10.80;;;2.67;;
20802;SDS011;10562;-33.856;151.182;2023-05-10T08:49:24;8.70;;;2.70;;
20802;SDS011;10562;-33.856;151.182;2023-05-10T08:52:00;10.95;;;3.40;;
20802;SDS011;10562;-33.856;151.182;2023-05-10T08:54:33;10.63;;;2.95;;
20802;SDS011;10562;-33.856;151.182;2023-05-10T08:57:05;9.50;;;3.53;;
20802;SDS011;10562;-33.856;151.182;2023-05-10T08:59:36;10.63;;;3.40;;
20802;SDS011;10562;-33.856;151.182;2023-05-10T09:02:07;11.27;;;3.92;;
20802;SDS011;10562;-33.856;151.182;2023-05-10T09:04:43;12.60;;;3.25;;
20802;SDS011;10562;-33.856;151.182;2023-05-10T09:07:15;12.00;;;3.10;;
20802;SDS011;10562;-33.856;151.182;2023-05-10T09:09:45;9.23;;;3.10;;
20802;SDS011;10562;-33.856;151.182;2023-05-10T09:12:17;12.15;;;3.05;;
20802;SDS011;10562;-33.856;151.182;2023-05-10T09:14:48;13.65;;;2.80;;
20802;SDS011;10562;-33.856;151.182;2023-05-10T09:17:21;11.27;;;3.13;;
20802;SDS011;10562;-33.856;151.182;2023-05-10T09:19:59;11.32;;;3.30;;
20802;SDS011;10562;-33.856;151.182;2023-05-10T09:22:30;10.52;;;3.35;;
20802;SDS011;10562;-33.856;151.182;2023-05-10T09:25:07;10.13;;;3.15;;
20802;SDS011;10562;-33.856;151.182;2023-05-10T09:27:39;10.63;;;3.13;;
20802;SDS011;10562;-33.856;151.182;2023-05-10T09:30:10;13.52;;;3.10;;
20802;SDS011;10562;-33.856;151.182;2023-05-10T09:32:46;8.15;;;2.60;;
20802;SDS011;10562;-33.856;151.182;2023-05-10T09:35:21;9.52;;;2.67;;
20802;SDS011;10562;-33.856;151.182;2023-05-10T09:37:53;8.40;;;3.03;;
20802;SDS011;10562;-33.856;151.182;2023-05-10T09:40:25;11.32;;;2.72;;
20802;SDS011;10562;-33.856;151.182;2023-05-10T09:42:57;11.63;;;2.92;;
20802;SDS011;10562;-33.856;151.182;2023-05-10T09:45:29;7.95;;;2.83;;
20802;SDS011;10562;-33.856;151.182;2023-05-10T09:48:00;10.10;;;3.20;;
20802;SDS011;10562;-33.856;151.182;2023-05-10T09:50:34;11.70;;;3.05;;
20802;SDS011;10562;-33.856;151.182;2023-05-10T09:53:05;10.07;;;3.35;;
20802;SDS011;10562;-33.856;151.182;2023-05-10T09:55:39;16.05;;;3.38;;
20802;SDS011;10562;-33.856;151.182;2023-05-10T09:58:11;13.68;;;3.55;;
20802;SDS011;10562;-33.856;151.182;2023-05-10T10:00:42;11.45;;;3.30;;
20802;SDS011;10562;-33.856;151.182;2023-05-10T10:03:13;12.00;;;2.78;;
20802;SDS011;10562;-33.856;151.182;2023-05-10T10:05:47;7.13;;;2.80;;
20802;SDS011;10562;-33.856;151.182;2023-05-10T10:08:19;11.55;;;2.78;;
20802;SDS011;10562;-33.856;151.182;2023-05-10T10:10:50;9.57;;;3.00;;
20802;SDS011;10562;-33.856;151.182;2023-05-10T10:13:21;17.73;;;3.45;;
20802;SDS011;10562;-33.856;151.182;2023-05-10T10:15:52;11.45;;;3.55;;
20802;SDS011;10562;-33.856;151.182;2023-05-10T10:18:23;14.15;;;3.63;;
20802;SDS011;10562;-33.856;151.182;2023-05-10T10:20:56;9.52;;;3.80;;
20802;SDS011;10562;-33.856;151.182;2023-05-10T10:23:27;13.82;;;4.10;;
20802;SDS011;10562;-33.856;151.182;2023-05-10T10:25:58;14.38;;;5.80;;
20802;SDS011;10562;-33.856;151.182;2023-05-10T10:28:32;16.40;;;5.53;;
20802;SDS011;10562;-33.856;151.182;2023-05-10T10:31:13;13.32;;;4.63;;
20802;SDS011;10562;-33.856;151.182;2023-05-10T10:36:43;12.52;;;3.90;;
20802;SDS011;10562;-33.856;151.182;2023-05-10T10:39:14;13.75;;;4.32;;
20802;SDS011;10562;-33.856;151.182;2023-05-10T10:41:49;14.45;;;4.43;;
20802;SDS011;10562;-33.856;151.182;2023-05-10T10:44:24;13.77;;;4.40;;
20802;SDS011;10562;-33.856;151.182;2023-05-10T10:47:03;11.50;;;3.85;;
20802;SDS011;10562;-33.856;151.182;2023-05-10T10:49:37;12.05;;;3.75;;
20802;SDS011;10562;-33.856;151.182;2023-05-10T10:52:20;13.13;;;4.43;;
20802;SDS011;10562;-33.856;151.182;2023-05-10T10:54:57;13.23;;;4.18;;
20802;SDS011;10562;-33.856;151.182;2023-05-10T10:57:31;13.10;;;4.40;;
20802;SDS011;10562;-33.856;151.182;2023-05-10T11:00:21;12.93;;;4.45;;
20802;SDS011;10562;-33.856;151.182;2023-05-10T11:02:55;12.25;;;4.40;;
20802;SDS011;10562;-33.856;151.182;2023-05-10T11:08:18;10.95;;;4.25;;
20802;SDS011;10562;-33.856;151.182;2023-05-10T11:11:05;12.00;;;4.65;;
20802;SDS011;10562;-33.856;151.182;2023-05-10T11:13:40;13.75;;;4.70;;
20802;SDS011;10562;-33.856;151.182;2023-05-10T11:16:15;13.85;;;4.93;;
20802;SDS011;10562;-33.856;151.182;2023-05-10T11:18:53;12.98;;;4.43;;
20802;SDS011;10562;-33.856;151.182;2023-05-10T11:21:27;13.23;;;4.47;;
20802;SDS011;10562;-33.856;151.182;2023-05-10T11:24:01;9.80;;;4.20;;
20802;SDS011;10562;-33.856;151.182;2023-05-10T11:26:41;10.63;;;4.10;;
20802;SDS011;10562;-33.856;151.182;2023-05-10T11:29:12;13.30;;;4.28;;
20802;SDS011;10562;-33.856;151.182;2023-05-10T11:31:44;11.13;;;4.55;;
20802;SDS011;10562;-33.856;151.182;2023-05-10T11:34:23;12.63;;;4.68;;
20802;SDS011;10562;-33.856;151.182;2023-05-10T11:36:54;13.75;;;4.70;;
20802;SDS011;10562;-33.856;151.182;2023-05-10T11:39:28;13.65;;;4.50;;
20802;SDS011;10562;-33.856;151.182;2023-05-10T11:42:00;10.30;;;4.53;;
20802;SDS011;10562;-33.856;151.182;2023-05-10T11:44:30;12.52;;;4.38;;
20802;SDS011;10562;-33.856;151.182;2023-05-10T11:47:02;14.35;;;4.95;;
20802;SDS011;10562;-33.856;151.182;2023-05-10T11:49:34;10.95;;;4.85;;
20802;SDS011;10562;-33.856;151.182;2023-05-10T11:52:06;11.52;;;5.50;;
20802;SDS011;10562;-33.856;151.182;2023-05-10T11:54:42;12.38;;;5.40;;
20802;SDS011;10562;-33.856;151.182;2023-05-10T11:57:19;13.65;;;5.50;;
20802;SDS011;10562;-33.856;151.182;2023-05-10T11:59:56;16.48;;;5.85;;
20802;SDS011;10562;-33.856;151.182;2023-05-10T12:02:28;19.80;;;5.72;;
20802;SDS011;10562;-33.856;151.182;2023-05-10T12:04:59;15.80;;;5.63;;
20802;SDS011;10562;-33.856;151.182;2023-05-10T12:07:31;20.73;;;5.75;;
20802;SDS011;10562;-33.856;151.182;2023-05-10T12:10:08;13.02;;;5.03;;
20802;SDS011;10562;-33.856;151.182;2023-05-10T12:12:40;15.15;;;5.70;;
20802;SDS011;10562;-33.856;151.182;2023-05-10T12:15:12;12.52;;;5.13;;
20802;SDS011;10562;-33.856;151.182;2023-05-10T12:17:47;12.02;;;4.47;;
20802;SDS011;10562;-33.856;151.182;2023-05-10T12:20:18;14.43;;;5.45;;
20802;SDS011;10562;-33.856;151.182;2023-05-10T12:22:50;16.33;;;4.82;;
20802;SDS011;10562;-33.856;151.182;2023-05-10T12:25:23;14.27;;;5.10;;
20802;SDS011;10562;-33.856;151.182;2023-05-10T12:27:59;13.88;;;5.70;;
20802;SDS011;10562;-33.856;151.182;2023-05-10T12:30:32;12.60;;;5.35;;
20802;SDS011;10562;-33.856;151.182;2023-05-10T12:33:08;13.75;;;5.78;;
20802;SDS011;10562;-33.856;151.182;2023-05-10T12:35:44;11.93;;;5.28;;
20802;SDS011;10562;-33.856;151.182;2023-05-10T12:38:27;14.05;;;5.50;;
20802;SDS011;10562;-33.856;151.182;2023-05-10T12:41:03;15.10;;;5.38;;
20802;SDS011;10562;-33.856;151.182;2023-05-10T12:43:34;12.45;;;5.25;;
20802;SDS011;10562;-33.856;151.182;2023-05-10T12:46:06;14.18;;;6.00;;
20802;SDS011;10562;-33.856;151.182;2023-05-10T12:48:37;14.30;;;5.90;;
20802;SDS011;10562;-33.856;151.182;2023-05-10T12:51:08;13.32;;;6.03;;
20802;SDS011;10562;-33.856;151.182;2023-05-10T12:53:41;12.10;;;5.40;;
20802;SDS011;10562;-33.856;151.182;2023-05-10T12:56:15;14.55;;;5.75;;
20802;SDS011;10562;-33.856;151.182;2023-05-10T12:58:46;17.35;;;5.50;;
20802;SDS011;10562;-33.856;151.182;2023-05-10T13:01:17;11.63;;;5.50;;
20802;SDS011;10562;-33.856;151.182;2023-05-10T13:03:48;10.55;;;5.40;;
20802;SDS011;10562;-33.856;151.182;2023-05-10T13:06:19;13.68;;;5.22;;
20802;SDS011;10562;-33.856;151.182;2023-05-10T13:08:50;11.85;;;5.40;;
20802;SDS011;10562;-33.856;151.182;2023-05-10T13:11:22;10.63;;;5.20;;
20802;SDS011;10562;-33.856;151.182;2023-05-10T13:13:53;13.60;;;5.93;;
20802;SDS011;10562;-33.856;151.182;2023-05-10T13:16:24;11.52;;;5.30;;
20802;SDS011;10562;-33.856;151.182;2023-05-10T13:18:55;13.75;;;5.72;;
20802;SDS011;10562;-33.856;151.182;2023-05-10T13:21:25;19.63;;;6.22;;
20802;SDS011;10562;-33.856;151.182;2023-05-10T13:23:56;10.45;;;5.03;;
20802;SDS011;10562;-33.856;151.182;2023-05-10T13:26:29;15.88;;;6.20;;
20802;SDS011;10562;-33.856;151.182;2023-05-10T13:29:00;13.98;;;6.35;;
20802;SDS011;10562;-33.856;151.182;2023-05-10T13:31:31;15.45;;;6.30;;
20802;SDS011;10562;-33.856;151.182;2023-05-10T13:34:02;12.63;;;5.80;;
20802;SDS011;10562;-33.856;151.182;2023-05-10T13:36:32;12.70;;;6.00;;
20802;SDS011;10562;-33.856;151.182;2023-05-10T13:39:03;13.95;;;6.15;;
20802;SDS011;10562;-33.856;151.182;2023-05-10T13:41:36;14.38;;;6.07;;
20802;SDS011;10562;-33.856;151.182;2023-05-10T13:44:07;14.32;;;6.20;;
20802;SDS011;10562;-33.856;151.182;2023-05-10T13:46:38;12.60;;;6.15;;
20802;SDS011;10562;-33.856;151.182;2023-05-10T13:49:09;12.98;;;6.30;;
20802;SDS011;10562;-33.856;151.182;2023-05-10T13:51:39;15.63;;;6.75;;
20802;SDS011;10562;-33.856;151.182;2023-05-10T13:54:11;13.38;;;6.28;;
20802;SDS011;10562;-33.856;151.182;2023-05-10T13:56:45;14.68;;;6.60;;
20802;SDS011;10562;-33.856;151.182;2023-05-10T13:59:16;16.85;;;7.00;;
20802;SDS011;10562;-33.856;151.182;2023-05-10T14:01:46;12.93;;;7.25;;
20802;SDS011;10562;-33.856;151.182;2023-05-10T14:04:17;17.05;;;7.35;;
20802;SDS011;10562;-33.856;151.182;2023-05-10T14:06:48;15.65;;;7.32;;
20802;SDS011;10562;-33.856;151.182;2023-05-10T14:09:19;13.48;;;7.13;;
20802;SDS011;10562;-33.856;151.182;2023-05-10T14:11:52;12.38;;;6.97;;
20802;SDS011;10562;-33.856;151.182;2023-05-10T14:14:23;16.70;;;7.15;;
20802;SDS011;10562;-33.856;151.182;2023-05-10T14:16:55;16.85;;;7.13;;
20802;SDS011;10562;-33.856;151.182;2023-05-10T14:19:25;15.57;;;6.93;;
20802;SDS011;10562;-33.856;151.182;2023-05-10T14:21:58;15.77;;;6.70;;
20802;SDS011;10562;-33.856;151.182;2023-05-10T14:24:29;14.88;;;7.13;;
20802;SDS011;10562;-33.856;151.182;2023-05-10T14:27:01;18.67;;;7.55;;
20802;SDS011;10562;-33.856;151.182;2023-05-10T14:29:32;15.82;;;6.97;;
20802;SDS011;10562;-33.856;151.182;2023-05-10T14:32:03;12.02;;;6.72;;
20802;SDS011;10562;-33.856;151.182;2023-05-10T14:34:34;14.77;;;7.20;;
20802;SDS011;10562;-33.856;151.182;2023-05-10T14:37:05;15.95;;;8.35;;
20802;SDS011;10562;-33.856;151.182;2023-05-10T14:39:35;17.55;;;8.30;;
20802;SDS011;10562;-33.856;151.182;2023-05-10T14:42:08;16.55;;;8.15;;
20802;SDS011;10562;-33.856;151.182;2023-05-10T14:44:39;16.42;;;8.20;;
20802;SDS011;10562;-33.856;151.182;2023-05-10T14:47:09;17.05;;;8.02;;
20802;SDS011;10562;-33.856;151.182;2023-05-10T14:49:40;12.30;;;7.97;;
20802;SDS011;10562;-33.856;151.182;2023-05-10T14:52:11;14.00;;;7.85;;
20802;SDS011;10562;-33.856;151.182;2023-05-10T14:54:42;14.38;;;8.55;;
20802;SDS011;10562;-33.856;151.182;2023-05-10T14:57:14;17.27;;;8.27;;
20802;SDS011;10562;-33.856;151.182;2023-05-10T14:59:45;19.83;;;7.93;;
20802;SDS011;10562;-33.856;151.182;2023-05-10T15:02:16;14.07;;;7.68;;
20802;SDS011;10562;-33.856;151.182;2023-05-10T15:04:47;13.55;;;7.55;;
20802;SDS011;10562;-33.856;151.182;2023-05-10T15:07:17;11.93;;;7.68;;
20802;SDS011;10562;-33.856;151.182;2023-05-10T15:09:48;15.52;;;7.90;;
20802;SDS011;10562;-33.856;151.182;2023-05-10T15:12:22;14.07;;;7.60;;
20802;SDS011;10562;-33.856;151.182;2023-05-10T15:14:52;14.45;;;7.72;;
20802;SDS011;10562;-33.856;151.182;2023-05-10T15:17:23;14.82;;;7.30;;
20802;SDS011;10562;-33.856;151.182;2023-05-10T15:19:54;12.45;;;7.10;;
20802;SDS011;10562;-33.856;151.182;2023-05-10T15:22:26;13.25;;;7.10;;
20802;SDS011;10562;-33.856;151.182;2023-05-10T15:24:57;13.77;;;8.13;;
20802;SDS011;10562;-33.856;151.182;2023-05-10T15:27:30;16.90;;;7.68;;
20802;SDS011;10562;-33.856;151.182;2023-05-10T15:30:01;15.32;;;7.40;;
20802;SDS011;10562;-33.856;151.182;2023-05-10T15:32:32;14.55;;;7.93;;
20802;SDS011;10562;-33.856;151.182;2023-05-10T15:35:03;14.98;;;10.25;;
20802;SDS011;10562;-33.856;151.182;2023-05-10T15:37:34;17.30;;;8.10;;
20802;SDS011;10562;-33.856;151.182;2023-05-10T15:40:05;16.45;;;8.02;;
20802;SDS011;10562;-33.856;151.182;2023-05-10T15:42:38;13.07;;;7.50;;
20802;SDS011;10562;-33.856;151.182;2023-05-10T15:45:10;17.15;;;7.60;;
20802;SDS011;10562;-33.856;151.182;2023-05-10T15:47:41;16.17;;;6.75;;
20802;SDS011;10562;-33.856;151.182;2023-05-10T15:50:12;17.63;;;6.82;;
20802;SDS011;10562;-33.856;151.182;2023-05-10T15:52:44;16.42;;;7.25;;
20802;SDS011;10562;-33.856;151.182;2023-05-10T15:55:14;12.70;;;6.90;;
20802;SDS011;10562;-33.856;151.182;2023-05-10T15:57:47;12.48;;;6.82;;
20802;SDS011;10562;-33.856;151.182;2023-05-10T16:00:18;16.42;;;7.28;;
20802;SDS011;10562;-33.856;151.182;2023-05-10T16:02:49;14.63;;;7.10;;
20802;SDS011;10562;-33.856;151.182;2023-05-10T16:05:21;13.43;;;7.50;;
20802;SDS011;10562;-33.856;151.182;2023-05-10T16:07:52;18.40;;;8.48;;
20802;SDS011;10562;-33.856;151.182;2023-05-10T16:10:23;15.00;;;8.82;;
20802;SDS011;10562;-33.856;151.182;2023-05-10T16:12:56;15.45;;;8.45;;
20802;SDS011;10562;-33.856;151.182;2023-05-10T16:15:27;13.45;;;8.32;;
20802;SDS011;10562;-33.856;151.182;2023-05-10T16:17:58;12.88;;;8.93;;
20802;SDS011;10562;-33.856;151.182;2023-05-10T16:20:29;13.18;;;9.27;;
20802;SDS011;10562;-33.856;151.182;2023-05-10T16:23:01;15.57;;;9.02;;
20802;SDS011;10562;-33.856;151.182;2023-05-10T16:25:32;16.65;;;9.85;;
20802;SDS011;10562;-33.856;151.182;2023-05-10T16:28:05;14.32;;;9.63;;
20802;SDS011;10562;-33.856;151.182;2023-05-10T16:30:36;15.57;;;9.40;;
20802;SDS011;10562;-33.856;151.182;2023-05-10T16:33:07;13.20;;;9.82;;
20802;SDS011;10562;-33.856;151.182;2023-05-10T16:35:37;19.02;;;10.20;;
20802;SDS011;10562;-33.856;151.182;2023-05-10T16:38:08;12.93;;;9.38;;
20802;SDS011;10562;-33.856;151.182;2023-05-10T16:40:40;12.05;;;9.95;;
20802;SDS011;10562;-33.856;151.182;2023-05-10T16:43:13;17.20;;;10.20;;
20802;SDS011;10562;-33.856;151.182;2023-05-10T16:45:44;15.20;;;9.93;;
20802;SDS011;10562;-33.856;151.182;2023-05-10T16:48:15;13.60;;;9.60;;
20802;SDS011;10562;-33.856;151.182;2023-05-10T16:50:45;14.07;;;9.48;;
20802;SDS011;10562;-33.856;151.182;2023-05-10T16:53:16;14.43;;;9.55;;
20802;SDS011;10562;-33.856;151.182;2023-05-10T16:55:47;12.73;;;9.63;;
20802;SDS011;10562;-33.856;151.182;2023-05-10T16:58:20;14.52;;;8.98;;
20802;SDS011;10562;-33.856;151.182;2023-05-10T17:00:50;18.58;;;9.35;;
20802;SDS011;10562;-33.856;151.182;2023-05-10T17:03:21;18.75;;;9.10;;
20802;SDS011;10562;-33.856;151.182;2023-05-10T17:05:52;16.25;;;8.15;;